sim
Sign-in with your pilot id or email,
or register
Callsign
Passwort

Schedule Details

Flight Number: DLH1829 (2)
Departure: Bilbao Airport (LEBB) at 06:40
Arrival: Munich Airport (EDDM) at 08:50
Route: Lufthansa Passenger Schedule. Enter filed route here before submitting Pirep.

Weather Information
Getting current METAR information for LEBB 010130Z AUTO 11002KT CAVOK 14/14 Q1011
Getting current METAR information for EDDM 010120Z 07001KT 1200 0500NE R08L/0500D R08R/1100D BCFG NSC 05/04 Q1011 BECMG 0600 FG

Schedule Frequency

Route Map